sensor_id;sensor_type;location;lat;lon;timestamp;pressure;altitude;pressure_sealevel;temperature;humidity
23996;BME280;12207;50.076;8.848;2024-02-14T00:00:11;100375.97;;;4.73;99.41
23996;BME280;12207;50.076;8.848;2024-02-14T00:02:46;100377.47;;;4.75;99.32
23996;BME280;12207;50.076;8.848;2024-02-14T00:05:16;100372.50;;;4.72;99.73
23996;BME280;12207;50.076;8.848;2024-02-14T00:07:42;100376.81;;;4.73;99.96
23996;BME280;12207;50.076;8.848;2024-02-14T00:10:09;100382.28;;;4.80;99.36
23996;BME280;12207;50.076;8.848;2024-02-14T00:12:36;100385.44;;;4.75;99.26
23996;BME280;12207;50.076;8.848;2024-02-14T00:15:03;100377.63;;;4.74;100.00
23996;BME280;12207;50.076;8.848;2024-02-14T00:17:32;100383.94;;;4.81;100.00
23996;BME280;12207;50.076;8.848;2024-02-14T00:20:00;100386.25;;;4.92;99.84
23996;BME280;12207;50.076;8.848;2024-02-14T00:22:26;100389.75;;;4.85;100.00
23996;BME280;12207;50.076;8.848;2024-02-14T00:24:52;100401.53;;;4.82;100.00
23996;BME280;12207;50.076;8.848;2024-02-14T00:27:18;100394.41;;;4.74;100.00
23996;BME280;12207;50.076;8.848;2024-02-14T00:29:44;100392.91;;;4.80;100.00
23996;BME280;12207;50.076;8.848;2024-02-14T00:32:12;100385.94;;;4.79;100.00
23996;BME280;12207;50.076;8.848;2024-02-14T00:34:39;100394.06;;;4.77;100.00
23996;BME280;12207;50.076;8.848;2024-02-14T00:37:05;100389.75;;;4.85;100.00
23996;BME280;12207;50.076;8.848;2024-02-14T00:39:31;100384.94;;;4.88;100.00
23996;BME280;12207;50.076;8.848;2024-02-14T00:41:57;100389.56;;;4.94;100.00
23996;BME280;12207;50.076;8.848;2024-02-14T00:44:23;100379.56;;;5.04;100.00
23996;BME280;12207;50.076;8.848;2024-02-14T00:46:49;100372.94;;;5.00;100.00
23996;BME280;12207;50.076;8.848;2024-02-14T00:49:21;100373.25;;;4.97;100.00
23996;BME280;12207;50.076;8.848;2024-02-14T00:51:47;100370.94;;;5.02;100.00
23996;BME280;12207;50.076;8.848;2024-02-14T00:54:14;100371.25;;;5.07;100.00
23996;BME280;12207;50.076;8.848;2024-02-14T00:56:40;100362.59;;;5.13;100.00
23996;BME280;12207;50.076;8.848;2024-02-14T00:59:06;100366.53;;;5.26;100.00
23996;BME280;12207;50.076;8.848;2024-02-14T01:01:33;100368.53;;;5.24;100.00
23996;BME280;12207;50.076;8.848;2024-02-14T01:04:00;100367.53;;;5.25;100.00
23996;BME280;12207;50.076;8.848;2024-02-14T01:06:26;100375.50;;;5.25;100.00
23996;BME280;12207;50.076;8.848;2024-02-14T01:08:52;100368.84;;;5.29;100.00
23996;BME280;12207;50.076;8.848;2024-02-14T01:11:19;100361.19;;;5.34;100.00
23996;BME280;12207;50.076;8.848;2024-02-14T01:13:45;100363.50;;;5.37;100.00
23996;BME280;12207;50.076;8.848;2024-02-14T01:16:11;100360.78;;;5.45;100.00
23996;BME280;12207;50.076;8.848;2024-02-14T01:18:37;100352.28;;;5.49;100.00
23996;BME280;12207;50.076;8.848;2024-02-14T01:21:03;100345.28;;;5.57;100.00
23996;BME280;12207;50.076;8.848;2024-02-14T01:23:30;100342.44;;;5.58;100.00
23996;BME280;12207;50.076;8.848;2024-02-14T01:25:59;100343.59;;;5.64;100.00
23996;BME280;12207;50.076;8.848;2024-02-14T01:28:28;100333.22;;;5.69;100.00
23996;BME280;12207;50.076;8.848;2024-02-14T01:30:54;100332.88;;;5.72;100.00
23996;BME280;12207;50.076;8.848;2024-02-14T01:33:23;100332.22;;;5.70;100.00
23996;BME280;12207;50.076;8.848;2024-02-14T01:35:49;100329.56;;;5.70;100.00
23996;BME280;12207;50.076;8.848;2024-02-14T01:38:18;100327.91;;;5.69;100.00
23996;BME280;12207;50.076;8.848;2024-02-14T01:40:44;100322.97;;;5.66;100.00
23996;BME280;12207;50.076;8.848;2024-02-14T01:43:11;100323.59;;;5.68;100.00
23996;BME280;12207;50.076;8.848;2024-02-14T01:45:38;100325.81;;;5.64;100.00
23996;BME280;12207;50.076;8.848;2024-02-14T01:48:05;100324.16;;;5.63;100.00
23996;BME280;12207;50.076;8.848;2024-02-14T01:50:33;100321.75;;;5.68;100.00
23996;BME280;12207;50.076;8.848;2024-02-14T01:53:00;100319.75;;;5.70;100.00
23996;BME280;12207;50.076;8.848;2024-02-14T01:55:28;100322.41;;;5.70;100.00
23996;BME280;12207;50.076;8.848;2024-02-14T01:57:54;100319.59;;;5.72;100.00
23996;BME280;12207;50.076;8.848;2024-02-14T02:00:21;100324.38;;;5.76;100.00
23996;BME280;12207;50.076;8.848;2024-02-14T02:02:47;100312.91;;;5.76;100.00
23996;BME280;12207;50.076;8.848;2024-02-14T02:05:14;100307.59;;;5.76;100.00
23996;BME280;12207;50.076;8.848;2024-02-14T02:07:41;100313.22;;;5.81;100.00
23996;BME280;12207;50.076;8.848;2024-02-14T02:10:10;100308.72;;;5.81;100.00
23996;BME280;12207;50.076;8.848;2024-02-14T02:12:39;100309.56;;;5.82;100.00
23996;BME280;12207;50.076;8.848;2024-02-14T02:15:08;100306.06;;;5.81;100.00
23996;BME280;12207;50.076;8.848;2024-02-14T02:17:39;100298.09;;;5.81;100.00
23996;BME280;12207;50.076;8.848;2024-02-14T02:20:06;100299.91;;;5.89;100.00
23996;BME280;12207;50.076;8.848;2024-02-14T02:22:35;100294.19;;;5.92;100.00
23996;BME280;12207;50.076;8.848;2024-02-14T02:25:04;100290.66;;;6.00;100.00
23996;BME280;12207;50.076;8.848;2024-02-14T02:27:34;100287.00;;;6.01;100.00
23996;BME280;12207;50.076;8.848;2024-02-14T02:30:06;100296.63;;;6.02;100.00
23996;BME280;12207;50.076;8.848;2024-02-14T02:32:34;100291.13;;;6.03;100.00
23996;BME280;12207;50.076;8.848;2024-02-14T02:35:00;100290.78;;;6.06;100.00
23996;BME280;12207;50.076;8.848;2024-02-14T02:37:27;100283.44;;;6.08;100.00
23996;BME280;12207;50.076;8.848;2024-02-14T02:39:56;100281.44;;;6.10;100.00
23996;BME280;12207;50.076;8.848;2024-02-14T02:42:22;100284.09;;;6.10;100.00
23996;BME280;12207;50.076;8.848;2024-02-14T02:44:52;100283.91;;;6.12;100.00
23996;BME280;12207;50.076;8.848;2024-02-14T02:47:18;100285.56;;;6.13;100.00
23996;BME280;12207;50.076;8.848;2024-02-14T02:49:45;100285.19;;;6.16;100.00
23996;BME280;12207;50.076;8.848;2024-02-14T02:52:11;100298.78;;;6.21;100.00
23996;BME280;12207;50.076;8.848;2024-02-14T02:54:38;100294.56;;;6.27;100.00
23996;BME280;12207;50.076;8.848;2024-02-14T02:57:10;100293.03;;;6.32;100.00
23996;BME280;12207;50.076;8.848;2024-02-14T02:59:36;100292.66;;;6.35;100.00
23996;BME280;12207;50.076;8.848;2024-02-14T03:02:03;100298.63;;;6.37;100.00
23996;BME280;12207;50.076;8.848;2024-02-14T03:04:29;100293.94;;;6.39;100.00
23996;BME280;12207;50.076;8.848;2024-02-14T03:06:57;100292.38;;;6.45;100.00
23996;BME280;12207;50.076;8.848;2024-02-14T03:09:24;100304.16;;;6.50;100.00
23996;BME280;12207;50.076;8.848;2024-02-14T03:11:52;100305.97;;;6.50;100.00
23996;BME280;12207;50.076;8.848;2024-02-14T03:14:19;100301.13;;;6.54;99.88
23996;BME280;12207;50.076;8.848;2024-02-14T03:16:45;100298.75;;;6.59;99.55
23996;BME280;12207;50.076;8.848;2024-02-14T03:19:12;100299.00;;;6.64;98.89
23996;BME280;12207;50.076;8.848;2024-02-14T03:21:38;100303.97;;;6.67;98.49
23996;BME280;12207;50.076;8.848;2024-02-14T03:24:04;100309.75;;;6.70;98.58
23996;BME280;12207;50.076;8.848;2024-02-14T03:26:35;100310.38;;;6.72;99.33
23996;BME280;12207;50.076;8.848;2024-02-14T03:29:03;100312.16;;;6.80;98.81
23996;BME280;12207;50.076;8.848;2024-02-14T03:31:32;100311.38;;;6.86;96.93
23996;BME280;12207;50.076;8.848;2024-02-14T03:33:58;100302.19;;;6.89;97.77
23996;BME280;12207;50.076;8.848;2024-02-14T03:36:24;100307.63;;;6.95;97.46
23996;BME280;12207;50.076;8.848;2024-02-14T03:38:54;100298.63;;;6.96;97.31
23996;BME280;12207;50.076;8.848;2024-02-14T03:41:23;100290.00;;;6.94;97.37
23996;BME280;12207;50.076;8.848;2024-02-14T03:43:49;100294.59;;;7.00;96.61
23996;BME280;12207;50.076;8.848;2024-02-14T03:46:16;100297.88;;;7.02;96.32
23996;BME280;12207;50.076;8.848;2024-02-14T03:48:46;100302.22;;;7.03;96.68
23996;BME280;12207;50.076;8.848;2024-02-14T03:51:13;100306.59;;;7.11;95.95
23996;BME280;12207;50.076;8.848;2024-02-14T03:53:39;100299.13;;;7.21;94.77
23996;BME280;12207;50.076;8.848;2024-02-14T03:56:06;100309.59;;;7.23;94.70
23996;BME280;12207;50.076;8.848;2024-02-14T03:58:33;100308.88;;;7.29;94.93
23996;BME280;12207;50.076;8.848;2024-02-14T04:01:03;100307.03;;;7.29;94.94
23996;BME280;12207;50.076;8.848;2024-02-14T04:03:29;100308.94;;;7.35;93.62
23996;BME280;12207;50.076;8.848;2024-02-14T04:05:56;100305.44;;;7.35;94.48
23996;BME280;12207;50.076;8.848;2024-02-14T04:08:23;100309.91;;;7.49;93.47
23996;BME280;12207;50.076;8.848;2024-02-14T04:10:49;100316.25;;;7.48;93.47
23996;BME280;12207;50.076;8.848;2024-02-14T04:13:20;100317.22;;;7.62;92.51
23996;BME280;12207;50.076;8.848;2024-02-14T04:15:47;100315.75;;;7.80;91.30
23996;BME280;12207;50.076;8.848;2024-02-14T04:18:13;100311.19;;;7.96;90.44
23996;BME280;12207;50.076;8.848;2024-02-14T04:20:41;100314.53;;;8.04;90.03
23996;BME280;12207;50.076;8.848;2024-02-14T04:23:08;100324.25;;;8.12;89.70
23996;BME280;12207;50.076;8.848;2024-02-14T04:25:36;100312.69;;;8.26;88.52
23996;BME280;12207;50.076;8.848;2024-02-14T04:28:03;100314.13;;;8.29;88.77
23996;BME280;12207;50.076;8.848;2024-02-14T04:30:29;100313.31;;;8.28;89.33
23996;BME280;12207;50.076;8.848;2024-02-14T04:32:58;100318.16;;;8.39;87.55
23996;BME280;12207;50.076;8.848;2024-02-14T04:35:24;100306.25;;;8.42;87.24
23996;BME280;12207;50.076;8.848;2024-02-14T04:37:51;100309.94;;;8.41;87.33
23996;BME280;12207;50.076;8.848;2024-02-14T04:40:18;100322.91;;;8.44;87.92
23996;BME280;12207;50.076;8.848;2024-02-14T04:42:44;100304.66;;;8.47;86.90
23996;BME280;12207;50.076;8.848;2024-02-14T04:45:11;100312.91;;;8.52;86.74
23996;BME280;12207;50.076;8.848;2024-02-14T04:47:37;100314.75;;;8.52;87.21
23996;BME280;12207;50.076;8.848;2024-02-14T04:50:03;100314.53;;;8.53;86.98
23996;BME280;12207;50.076;8.848;2024-02-14T04:52:30;100311.94;;;8.60;86.29
23996;BME280;12207;50.076;8.848;2024-02-14T04:54:56;100312.94;;;8.59;85.92
23996;BME280;12207;50.076;8.848;2024-02-14T04:57:23;100315.22;;;8.62;85.79
23996;BME280;12207;50.076;8.848;2024-02-14T04:59:49;100313.38;;;8.63;85.81
23996;BME280;12207;50.076;8.848;2024-02-14T05:02:18;100310.09;;;8.61;86.22
23996;BME280;12207;50.076;8.848;2024-02-14T05:04:44;100305.31;;;8.56;86.67
23996;BME280;12207;50.076;8.848;2024-02-14T05:07:10;100308.25;;;8.61;85.71
23996;BME280;12207;50.076;8.848;2024-02-14T05:09:36;100306.81;;;8.65;85.93
23996;BME280;12207;50.076;8.848;2024-02-14T05:12:02;100312.59;;;8.69;85.40
23996;BME280;12207;50.076;8.848;2024-02-14T05:14:29;100311.53;;;8.63;86.54
23996;BME280;12207;50.076;8.848;2024-02-14T05:16:57;100311.94;;;8.60;87.02
23996;BME280;12207;50.076;8.848;2024-02-14T05:19:23;100316.44;;;8.60;87.14
23996;BME280;12207;50.076;8.848;2024-02-14T05:21:50;100301.53;;;8.72;86.09
23996;BME280;12207;50.076;8.848;2024-02-14T05:24:16;100302.56;;;8.77;85.47
23996;BME280;12207;50.076;8.848;2024-02-14T05:26:42;100308.94;;;8.76;85.41
23996;BME280;12207;50.076;8.848;2024-02-14T05:29:08;100313.44;;;8.76;85.88
23996;BME280;12207;50.076;8.848;2024-02-14T05:31:47;100301.13;;;8.75;86.26
23996;BME280;12207;50.076;8.848;2024-02-14T05:34:14;100301.06;;;8.62;87.82
23996;BME280;12207;50.076;8.848;2024-02-14T05:36:41;100301.50;;;8.65;87.47
23996;BME280;12207;50.076;8.848;2024-02-14T05:39:12;100298.00;;;8.65;87.34
23996;BME280;12207;50.076;8.848;2024-02-14T05:41:40;100303.53;;;8.63;87.68
23996;BME280;12207;50.076;8.848;2024-02-14T05:44:06;100284.63;;;8.65;87.37
23996;BME280;12207;50.076;8.848;2024-02-14T05:46:32;100297.34;;;8.63;88.01
23996;BME280;12207;50.076;8.848;2024-02-14T05:48:58;100308.03;;;8.63;88.27
23996;BME280;12207;50.076;8.848;2024-02-14T05:51:25;100312.16;;;8.65;88.14
23996;BME280;12207;50.076;8.848;2024-02-14T05:53:51;100310.72;;;8.63;88.66
23996;BME280;12207;50.076;8.848;2024-02-14T05:56:17;100314.00;;;8.65;88.42
23996;BME280;12207;50.076;8.848;2024-02-14T05:58:46;100308.44;;;8.60;89.18
23996;BME280;12207;50.076;8.848;2024-02-14T06:01:12;100307.22;;;8.62;88.99
23996;BME280;12207;50.076;8.848;2024-02-14T06:03:40;100308.03;;;8.63;89.18
23996;BME280;12207;50.076;8.848;2024-02-14T06:06:07;100307.66;;;8.66;89.32
23996;BME280;12207;50.076;8.848;2024-02-14T06:08:33;100316.06;;;8.63;89.55
23996;BME280;12207;50.076;8.848;2024-02-14T06:10:59;100312.56;;;8.62;89.43
23996;BME280;12207;50.076;8.848;2024-02-14T06:13:25;100315.91;;;8.71;89.40
23996;BME280;12207;50.076;8.848;2024-02-14T06:15:54;100314.41;;;8.62;90.21
23996;BME280;12207;50.076;8.848;2024-02-14T06:18:20;100322.03;;;8.65;90.22
23996;BME280;12207;50.076;8.848;2024-02-14T06:20:46;100328.19;;;8.65;90.39
23996;BME280;12207;50.076;8.848;2024-02-14T06:23:12;100331.13;;;8.70;90.10
23996;BME280;12207;50.076;8.848;2024-02-14T06:25:38;100329.03;;;8.66;91.36
23996;BME280;12207;50.076;8.848;2024-02-14T06:28:07;100342.81;;;8.69;90.35
23996;BME280;12207;50.076;8.848;2024-02-14T06:30:35;100342.25;;;8.74;90.40
23996;BME280;12207;50.076;8.848;2024-02-14T06:33:01;100347.56;;;8.74;90.95
23996;BME280;12207;50.076;8.848;2024-02-14T06:35:29;100350.25;;;8.74;90.56
23996;BME280;12207;50.076;8.848;2024-02-14T06:37:55;100359.47;;;8.71;91.12
23996;BME280;12207;50.076;8.848;2024-02-14T06:40:21;100354.13;;;8.71;91.26
23996;BME280;12207;50.076;8.848;2024-02-14T06:42:47;100362.72;;;8.67;91.88
23996;BME280;12207;50.076;8.848;2024-02-14T06:45:17;100356.13;;;8.63;92.49
23996;BME280;12207;50.076;8.848;2024-02-14T06:47:43;100360.06;;;8.67;92.83
23996;BME280;12207;50.076;8.848;2024-02-14T06:50:09;100366.03;;;8.69;93.00
23996;BME280;12207;50.076;8.848;2024-02-14T06:52:35;100363.38;;;8.69;93.55
23996;BME280;12207;50.076;8.848;2024-02-14T06:55:01;100364.75;;;8.65;93.68
23996;BME280;12207;50.076;8.848;2024-02-14T06:57:29;100361.84;;;8.60;94.76
23996;BME280;12207;50.076;8.848;2024-02-14T06:59:58;100368.41;;;8.57;94.90
23996;BME280;12207;50.076;8.848;2024-02-14T07:02:24;100365.47;;;8.52;95.34
23996;BME280;12207;50.076;8.848;2024-02-14T07:04:53;100373.91;;;8.49;95.85
23996;BME280;12207;50.076;8.848;2024-02-14T07:07:20;100365.44;;;8.45;96.28
23996;BME280;12207;50.076;8.848;2024-02-14T07:09:46;100363.78;;;8.44;96.47
23996;BME280;12207;50.076;8.848;2024-02-14T07:12:13;100364.63;;;8.45;96.05
23996;BME280;12207;50.076;8.848;2024-02-14T07:14:39;100371.81;;;8.44;96.27
23996;BME280;12207;50.076;8.848;2024-02-14T07:17:05;100380.19;;;8.41;97.12
23996;BME280;12207;50.076;8.848;2024-02-14T07:19:31;100389.09;;;8.48;96.87
23996;BME280;12207;50.076;8.848;2024-02-14T07:21:57;100387.84;;;8.51;96.72
23996;BME280;12207;50.076;8.848;2024-02-14T07:24:23;100392.63;;;8.55;97.05
23996;BME280;12207;50.076;8.848;2024-02-14T07:26:50;100384.63;;;8.55;97.01
23996;BME280;12207;50.076;8.848;2024-02-14T07:29:16;100387.16;;;8.64;97.17
23996;BME280;12207;50.076;8.848;2024-02-14T07:31:42;100382.09;;;8.75;97.01
23996;BME280;12207;50.076;8.848;2024-02-14T07:34:08;100377.88;;;8.87;95.39
23996;BME280;12207;50.076;8.848;2024-02-14T07:36:35;100387.16;;;8.92;95.60
23996;BME280;12207;50.076;8.848;2024-02-14T07:39:01;100382.06;;;9.03;95.41
23996;BME280;12207;50.076;8.848;2024-02-14T07:41:27;100384.81;;;9.16;93.70
23996;BME280;12207;50.076;8.848;2024-02-14T07:43:53;100385.66;;;9.23;93.62
23996;BME280;12207;50.076;8.848;2024-02-14T07:46:20;100391.25;;;9.29;93.80
23996;BME280;12207;50.076;8.848;2024-02-14T07:48:48;100388.38;;;9.30;92.85
23996;BME280;12207;50.076;8.848;2024-02-14T07:51:14;100391.50;;;9.34;92.91
23996;BME280;12207;50.076;8.848;2024-02-14T07:53:40;100400.53;;;9.33;92.79
23996;BME280;12207;50.076;8.848;2024-02-14T07:56:07;100400.13;;;9.36;93.35
23996;BME280;12207;50.076;8.848;2024-02-14T07:58:33;100408.78;;;9.38;92.00
23996;BME280;12207;50.076;8.848;2024-02-14T08:00:59;100405.09;;;9.39;92.24
23996;BME280;12207;50.076;8.848;2024-02-14T08:03:25;100400.56;;;9.46;92.00
23996;BME280;12207;50.076;8.848;2024-02-14T08:05:51;100395.03;;;9.47;91.85
23996;BME280;12207;50.076;8.848;2024-02-14T08:08:17;100398.78;;;9.53;91.66
23996;BME280;12207;50.076;8.848;2024-02-14T08:10:43;100405.97;;;9.52;91.40
23996;BME280;12207;50.076;8.848;2024-02-14T08:13:09;100410.09;;;9.55;91.79
23996;BME280;12207;50.076;8.848;2024-02-14T08:15:37;100405.53;;;9.49;91.82
23996;BME280;12207;50.076;8.848;2024-02-14T08:18:03;100403.50;;;9.51;92.13
23996;BME280;12207;50.076;8.848;2024-02-14T08:20:29;100401.03;;;9.56;92.42
23996;BME280;12207;50.076;8.848;2024-02-14T08:22:55;100405.59;;;9.62;92.58
23996;BME280;12207;50.076;8.848;2024-02-14T08:25:21;100401.50;;;9.66;92.21
23996;BME280;12207;50.076;8.848;2024-02-14T08:27:47;100403.00;;;9.82;91.55
23996;BME280;12207;50.076;8.848;2024-02-14T08:30:13;100399.31;;;9.89;91.24
23996;BME280;12207;50.076;8.848;2024-02-14T08:32:40;100401.56;;;9.92;91.88
23996;BME280;12207;50.076;8.848;2024-02-14T08:35:06;100408.63;;;10.07;90.60
23996;BME280;12207;50.076;8.848;2024-02-14T08:37:33;100408.66;;;10.20;90.02
23996;BME280;12207;50.076;8.848;2024-02-14T08:40:02;100399.03;;;10.39;89.89
23996;BME280;12207;50.076;8.848;2024-02-14T08:42:32;100396.31;;;10.45;90.01
23996;BME280;12207;50.076;8.848;2024-02-14T08:44:58;100398.19;;;10.51;88.97
23996;BME280;12207;50.076;8.848;2024-02-14T08:47:25;100404.56;;;10.50;90.29
23996;BME280;12207;50.076;8.848;2024-02-14T08:49:52;100396.72;;;10.29;89.81
23996;BME280;12207;50.076;8.848;2024-02-14T08:52:18;100395.06;;;10.15;90.32
23996;BME280;12207;50.076;8.848;2024-02-14T08:54:44;100402.84;;;10.10;91.46
23996;BME280;12207;50.076;8.848;2024-02-14T14:03:33;100425.41;;;11.59;98.63
23996;BME280;12207;50.076;8.848;2024-02-14T14:06:03;100429.56;;;11.55;99.05
23996;BME280;12207;50.076;8.848;2024-02-14T14:08:31;100426.22;;;11.59;98.92
23996;BME280;12207;50.076;8.848;2024-02-14T14:45:22;100421.69;;;11.60;100.00
23996;BME280;12207;50.076;8.848;2024-02-14T14:47:48;100420.91;;;11.53;100.00
23996;BME280;12207;50.076;8.848;2024-02-14T14:50:15;100429.56;;;11.55;100.00
23996;BME280;12207;50.076;8.848;2024-02-14T14:52:45;100434.13;;;11.48;100.00
23996;BME280;12207;50.076;8.848;2024-02-14T14:55:11;100432.50;;;11.40;100.00
23996;BME280;12207;50.076;8.848;2024-02-14T14:57:38;100428.78;;;11.41;100.00
23996;BME280;12207;50.076;8.848;2024-02-14T15:00:19;100423.00;;;11.38;100.00
23996;BME280;12207;50.076;8.848;2024-02-14T15:02:45;100415.00;;;11.31;100.00
23996;BME280;12207;50.076;8.848;2024-02-14T15:05:12;100424.69;;;11.25;100.00
23996;BME280;12207;50.076;8.848;2024-02-14T15:07:39;100426.34;;;11.26;100.00
23996;BME280;12207;50.076;8.848;2024-02-14T15:10:06;100423.47;;;11.28;100.00
23996;BME280;12207;50.076;8.848;2024-02-14T15:12:33;100417.88;;;11.30;100.00
23996;BME280;12207;50.076;8.848;2024-02-14T15:15:03;100416.25;;;11.28;100.00
23996;BME280;12207;50.076;8.848;2024-02-14T15:17:29;100411.72;;;11.22;100.00
23996;BME280;12207;50.076;8.848;2024-02-14T15:19:56;100416.25;;;11.22;100.00
23996;BME280;12207;50.076;8.848;2024-02-14T15:22:22;100417.28;;;11.21;100.00
23996;BME280;12207;50.076;8.848;2024-02-14T15:24:51;100416.88;;;11.24;100.00
23996;BME280;12207;50.076;8.848;2024-02-14T15:27:20;100424.72;;;11.19;100.00
23996;BME280;12207;50.076;8.848;2024-02-14T15:29:50;100425.34;;;11.14;100.00
23996;BME280;12207;50.076;8.848;2024-02-14T15:32:35;100422.22;;;11.17;100.00
23996;BME280;12207;50.076;8.848;2024-02-14T15:35:20;100412.78;;;11.08;100.00
23996;BME280;12207;50.076;8.848;2024-02-14T15:37:46;100411.56;;;11.04;100.00
23996;BME280;12207;50.076;8.848;2024-02-14T15:40:15;100410.72;;;11.04;100.00
23996;BME280;12207;50.076;8.848;2024-02-14T15:42:43;100420.84;;;11.08;100.00
23996;BME280;12207;50.076;8.848;2024-02-14T15:45:09;100418.16;;;11.08;100.00
23996;BME280;12207;50.076;8.848;2024-02-14T15:47:45;100419.97;;;11.14;100.00
23996;BME280;12207;50.076;8.848;2024-02-14T15:50:11;100425.75;;;11.11;100.00
23996;BME280;12207;50.076;8.848;2024-02-14T15:52:38;100421.63;;;11.15;100.00
23996;BME280;12207;50.076;8.848;2024-02-14T15:55:08;100414.81;;;11.13;100.00
23996;BME280;12207;50.076;8.848;2024-02-14T15:57:35;100420.63;;;11.10;100.00
23996;BME280;12207;50.076;8.848;2024-02-14T16:00:04;100413.63;;;11.09;100.00
23996;BME280;12207;50.076;8.848;2024-02-14T16:02:36;100415.69;;;11.07;100.00
23996;BME280;12207;50.076;8.848;2024-02-14T16:05:03;100414.84;;;11.06;100.00
23996;BME280;12207;50.076;8.848;2024-02-14T16:07:30;100416.88;;;11.17;100.00
23996;BME280;12207;50.076;8.848;2024-02-14T16:09:59;100413.56;;;11.15;100.00
23996;BME280;12207;50.076;8.848;2024-02-14T16:12:25;100411.13;;;11.07;100.00
23996;BME280;12207;50.076;8.848;2024-02-14T16:14:52;100396.91;;;11.07;100.00
23996;BME280;12207;50.076;8.848;2024-02-14T16:17:18;100402.47;;;11.05;100.00
23996;BME280;12207;50.076;8.848;2024-02-14T16:19:44;100408.25;;;11.09;100.00
23996;BME280;12207;50.076;8.848;2024-02-14T16:22:10;100409.50;;;11.06;100.00
23996;BME280;12207;50.076;8.848;2024-02-14T16:24:37;100398.34;;;11.09;100.00
23996;BME280;12207;50.076;8.848;2024-02-14T16:27:03;100405.56;;;11.09;100.00
23996;BME280;12207;50.076;8.848;2024-02-14T16:29:30;100407.41;;;11.08;100.00
23996;BME280;12207;50.076;8.848;2024-02-14T16:31:57;100405.78;;;11.01;100.00
23996;BME280;12207;50.076;8.848;2024-02-14T16:34:23;100407.63;;;11.07;100.00
23996;BME280;12207;50.076;8.848;2024-02-14T16:36:49;100408.66;;;10.99;100.00
23996;BME280;12207;50.076;8.848;2024-02-14T16:39:16;100414.22;;;10.98;100.00
23996;BME280;12207;50.076;8.848;2024-02-14T16:41:42;100414.03;;;10.99;100.00
23996;BME280;12207;50.076;8.848;2024-02-14T16:44:11;100412.59;;;11.03;100.00
23996;BME280;12207;50.076;8.848;2024-02-14T16:46:38;100415.25;;;11.03;100.00
23996;BME280;12207;50.076;8.848;2024-02-14T16:49:04;100410.31;;;10.93;100.00
23996;BME280;12207;50.076;8.848;2024-02-14T16:51:30;100415.69;;;10.93;100.00
23996;BME280;12207;50.076;8.848;2024-02-14T16:53:56;100411.75;;;10.96;100.00
23996;BME280;12207;50.076;8.848;2024-02-14T16:56:22;100411.75;;;10.96;100.00
23996;BME280;12207;50.076;8.848;2024-02-14T16:58:50;100417.31;;;10.94;100.00
23996;BME280;12207;50.076;8.848;2024-02-14T17:01:17;100421.44;;;10.90;100.00
23996;BME280;12207;50.076;8.848;2024-02-14T17:03:43;100423.31;;;10.97;100.00
23996;BME280;12207;50.076;8.848;2024-02-14T17:06:09;100416.09;;;10.97;100.00
23996;BME280;12207;50.076;8.848;2024-02-14T17:08:35;100421.88;;;10.94;100.00
23996;BME280;12207;50.076;8.848;2024-02-14T17:11:03;100428.88;;;10.95;100.00
23996;BME280;12207;50.076;8.848;2024-02-14T17:13:29;100430.31;;;10.91;100.00
23996;BME280;12207;50.076;8.848;2024-02-14T17:15:56;100425.59;;;10.86;100.00
23996;BME280;12207;50.076;8.848;2024-02-14T17:18:23;100437.53;;;10.90;100.00
23996;BME280;12207;50.076;8.848;2024-02-14T17:20:50;100438.78;;;10.88;100.00
23996;BME280;12207;50.076;8.848;2024-02-14T17:23:16;100433.63;;;10.93;100.00
23996;BME280;12207;50.076;8.848;2024-02-14T17:25:42;100430.72;;;10.94;100.00
23996;BME280;12207;50.076;8.848;2024-02-14T17:28:09;100435.69;;;10.91;100.00
23996;BME280;12207;50.076;8.848;2024-02-14T17:30:36;100432.38;;;10.89;100.00
23996;BME280;12207;50.076;8.848;2024-02-14T17:33:02;100439.00;;;10.86;100.00
23996;BME280;12207;50.076;8.848;2024-02-14T17:35:30;100435.88;;;10.89;100.00
23996;BME280;12207;50.076;8.848;2024-02-14T17:37:56;100430.72;;;10.88;100.00
23996;BME280;12207;50.076;8.848;2024-02-14T17:40:23;100426.81;;;10.90;100.00
23996;BME280;12207;50.076;8.848;2024-02-14T17:42:49;100437.94;;;10.94;100.00
23996;BME280;12207;50.076;8.848;2024-02-14T17:45:15;100428.88;;;10.95;100.00
23996;BME280;12207;50.076;8.848;2024-02-14T17:47:42;100435.69;;;10.91;100.00
23996;BME280;12207;50.076;8.848;2024-02-14T17:50:08;100435.88;;;10.89;100.00
23996;BME280;12207;50.076;8.848;2024-02-14T17:52:36;100436.72;;;10.90;100.00
23996;BME280;12207;50.076;8.848;2024-02-14T17:55:04;100435.88;;;10.89;100.00
23996;BME280;12207;50.076;8.848;2024-02-14T17:57:37;100434.25;;;10.88;100.00
23996;BME280;12207;50.076;8.848;2024-02-14T18:00:04;100438.78;;;10.94;100.00
23996;BME280;12207;50.076;8.848;2024-02-14T18:02:35;100431.56;;;10.95;100.00
23996;BME280;12207;50.076;8.848;2024-02-14T18:05:02;100432.59;;;10.94;100.00
23996;BME280;12207;50.076;8.848;2024-02-14T18:07:28;100434.66;;;10.92;100.00
23996;BME280;12207;50.076;8.848;2024-02-14T18:09:55;100433.63;;;10.93;100.00
23996;BME280;12207;50.076;8.848;2024-02-14T18:12:22;100431.34;;;10.97;100.00
23996;BME280;12207;50.076;8.848;2024-02-14T18:14:51;100435.47;;;10.99;100.00
23996;BME280;12207;50.076;8.848;2024-02-14T18:17:18;100428.00;;;11.14;100.00
23996;BME280;12207;50.076;8.848;2024-02-14T18:19:44;100432.16;;;11.10;100.00
23996;BME280;12207;50.076;8.848;2024-02-14T18:22:10;100427.41;;;11.12;100.00
23996;BME280;12207;50.076;8.848;2024-02-14T18:24:37;100437.09;;;11.13;100.00
23996;BME280;12207;50.076;8.848;2024-02-14T18:27:03;100433.59;;;11.13;100.00
23996;BME280;12207;50.076;8.848;2024-02-14T18:29:32;100436.69;;;11.16;100.00